createdAt,value
2022-10-18T00:00:02.122Z,99603.94
2022-10-18T00:02:28.769Z,99609.28
2022-10-18T00:04:55.244Z,99602.22
2022-10-18T00:07:21.695Z,99602.91
2022-10-18T00:09:48.135Z,99603.34
2022-10-18T00:12:17.630Z,99603.81
2022-10-18T00:14:44.073Z,99607.81
2022-10-18T00:17:10.506Z,99614.09
2022-10-18T00:19:37.074Z,99610.66
2022-10-18T00:22:03.614Z,99617.53
2022-10-18T00:24:30.296Z,99613.97
2022-10-18T00:26:59.047Z,99615.59
2022-10-18T00:29:25.495Z,99610.78
2022-10-18T00:31:51.898Z,99621.31
2022-10-18T00:34:18.236Z,99625.53
2022-10-18T00:36:45.375Z,99620.50
2022-10-18T00:39:17.405Z,99619.47
2022-10-18T00:41:43.826Z,99614.66
2022-10-18T00:44:13.230Z,99612.97
2022-10-18T00:46:41.954Z,99616.06
2022-10-18T00:49:19.060Z,99604.94
2022-10-18T00:51:50.096Z,99603.81
2022-10-18T00:54:18.083Z,99608.25
2022-10-18T00:56:45.175Z,99615.56
2022-10-18T00:59:14.697Z,99615.56
2022-10-18T01:01:41.168Z,99610.28
2022-10-18T01:04:07.866Z,99609.94
2022-10-18T01:06:50.324Z,99613.63
2022-10-18T01:09:54.927Z,99612.69
2022-10-18T01:12:28.408Z,99602.41
2022-10-18T01:15:06.661Z,99607.88
2022-10-18T01:17:43.791Z,99604.69
2022-10-18T01:20:28.481Z,99603.34
2022-10-18T01:23:15.811Z,99604.34
2022-10-18T01:25:55.767Z,99601.25
2022-10-18T01:28:43.323Z,99598.28
2022-10-18T01:31:21.338Z,99598.16
2022-10-18T01:33:53.743Z,99599.78
2022-10-18T01:36:34.532Z,99594.50
2022-10-18T01:39:06.110Z,99594.06
2022-10-18T01:41:35.674Z,99594.72
2022-10-18T01:44:04.275Z,99593.59
2022-10-18T01:46:31.204Z,99590.16
2022-10-18T01:48:58.171Z,99586.38
2022-10-18T01:51:30.111Z,99589.47
2022-10-18T01:53:56.965Z,99587.84
2022-10-18T01:56:27.073Z,99582.00
2022-10-18T01:58:56.219Z,99576.53
2022-10-18T02:01:40.051Z,99570.47
2022-10-18T02:04:22.970Z,99572.91
2022-10-18T02:06:58.601Z,99574.03
2022-10-18T02:09:35.136Z,99565.56
2022-10-18T02:12:03.229Z,99570.41
2022-10-18T02:14:30.411Z,99574.25
2022-10-18T02:17:01.403Z,99571.88
2022-10-18T02:19:49.297Z,99572.91
2022-10-18T02:22:17.082Z,99572.69
2022-10-18T02:24:51.418Z,99577.69
2022-10-18T02:27:18.362Z,99580.19
2022-10-18T02:29:45.854Z,99581.44
2022-10-18T02:32:27.812Z,99584.28
2022-10-18T02:35:06.354Z,99593.28
2022-10-18T02:37:36.854Z,99597.75
2022-10-18T02:40:05.640Z,99591.69
2022-10-18T02:42:49.860Z,99599.81
2022-10-18T02:45:17.232Z,99598.66
2022-10-18T02:47:43.674Z,99588.94
2022-10-18T02:50:10.241Z,99596.09
2022-10-18T02:52:39.750Z,99590.50
2022-10-18T02:55:07.133Z,99595.16
2022-10-18T02:57:34.050Z,99593.81
2022-10-18T03:00:00.630Z,99602.91
2022-10-18T03:02:27.218Z,99599.72
2022-10-18T03:04:53.586Z,99586.25
2022-10-18T03:07:19.962Z,99599.94
2022-10-18T03:09:46.383Z,99588.88
2022-10-18T03:12:12.859Z,99589.84
2022-10-18T03:14:39.290Z,99584.81
2022-10-18T03:17:05.625Z,99591.31
2022-10-18T03:19:32.001Z,99586.53
2022-10-18T03:21:58.483Z,99586.88
2022-10-18T03:24:24.908Z,99576.13
2022-10-18T03:26:51.340Z,99574.47
2022-10-18T03:29:17.714Z,99569.81
2022-10-18T03:31:44.281Z,99579.72
2022-10-18T03:34:10.618Z,99578.53
2022-10-18T03:36:38.612Z,99576.59
2022-10-18T03:39:24.255Z,99582.63
2022-10-18T03:41:50.843Z,99577.97
2022-10-18T03:44:17.388Z,99575.78
2022-10-18T03:46:43.809Z,99572.72
2022-10-18T03:49:10.375Z,99565.88
2022-10-18T03:51:36.730Z,99574.31
2022-10-18T03:54:03.320Z,99570.88
2022-10-18T03:56:29.753Z,99575.13
2022-10-18T03:58:57.049Z,99569.88
2022-10-18T04:01:23.519Z,99574.69
2022-10-18T04:03:49.970Z,99574.47
2022-10-18T04:06:16.473Z,99562.97
2022-10-18T04:08:42.820Z,99565.13
2022-10-18T04:11:11.036Z,99568.56
2022-10-18T04:13:37.439Z,99565.47
2022-10-18T04:16:04.374Z,99570.31
2022-10-18T04:18:30.862Z,99563.72
2022-10-18T04:20:57.309Z,99562.66
2022-10-18T04:23:23.667Z,99564.72
2022-10-18T04:25:50.054Z,99571.22
2022-10-18T04:28:16.433Z,99560.28
2022-10-18T04:30:42.785Z,99559.81
2022-10-18T04:33:09.233Z,99557.78
2022-10-18T04:35:36.173Z,99559.63
2022-10-18T04:38:02.559Z,99562.78
2022-10-18T04:40:28.962Z,99564.63
2022-10-18T04:42:55.764Z,99554.91
2022-10-18T04:45:22.254Z,99545.22
2022-10-18T04:47:48.632Z,99557.88
2022-10-18T04:50:15.063Z,99549.59
2022-10-18T04:52:41.468Z,99554.72
2022-10-18T04:55:08.275Z,99548.91
2022-10-18T04:57:34.949Z,99553.56
2022-10-18T05:00:01.996Z,99547.75
2022-10-18T05:02:28.475Z,99550.72
2022-10-18T05:04:54.977Z,99548.91
2022-10-18T05:07:21.401Z,99549.72
2022-10-18T05:09:47.830Z,99548.78
2022-10-18T05:12:14.267Z,99545.13
2022-10-18T05:14:40.773Z,99536.78
2022-10-18T05:17:07.238Z,99532.91
2022-10-18T05:19:33.875Z,99537.34
2022-10-18T05:22:00.341Z,99531.53
2022-10-18T05:24:27.807Z,99525.16
2022-10-18T05:26:54.325Z,99537.81
2022-10-18T05:29:20.869Z,99535.16
2022-10-18T05:31:48.952Z,99536.88
2022-10-18T05:34:15.843Z,99533.56
2022-10-18T05:36:43.659Z,99533.03
2022-10-18T05:39:10.187Z,99528.56
2022-10-18T05:41:36.709Z,99533.16
2022-10-18T05:44:05.080Z,99538.75
2022-10-18T05:46:31.937Z,99538.53
2022-10-18T05:48:58.401Z,99538.16
2022-10-18T05:51:25.031Z,99539.22
2022-10-18T05:53:52.867Z,99540.13
2022-10-18T05:56:19.232Z,99539.78
2022-10-18T05:58:51.667Z,99540.56
2022-10-18T06:01:18.863Z,99544.25
2022-10-18T06:03:45.248Z,99537.03
2022-10-18T06:06:13.244Z,99535.44
2022-10-18T06:08:41.454Z,99542.91
2022-10-18T06:11:16.707Z,99543.66
2022-10-18T06:13:45.125Z,99545.28
2022-10-18T06:16:13.099Z,99548.03
2022-10-18T06:18:39.775Z,99545.41
2022-10-18T06:21:06.815Z,99548.94
2022-10-18T06:23:33.271Z,99560.81
2022-10-18T06:26:07.774Z,99561.28
2022-10-18T06:28:35.985Z,99558.66
2022-10-18T06:31:03.584Z,99552.72
2022-10-18T06:33:35.142Z,99551.91
2022-10-18T06:36:07.056Z,99551.56
2022-10-18T06:38:34.514Z,99555.69
2022-10-18T06:41:00.967Z,99557.53
2022-10-18T06:43:27.583Z,99554.31
2022-10-18T06:45:54.403Z,99559.22
2022-10-18T06:48:22.097Z,99554.63
2022-10-18T06:50:57.181Z,99562.31
2022-10-18T06:53:25.106Z,99559.69
2022-10-18T06:55:51.528Z,99553.72
2022-10-18T06:58:17.991Z,99556.59
2022-10-18T07:00:45.373Z,99550.97
2022-10-18T07:03:12.230Z,99544.69
2022-10-18T07:05:38.643Z,99550.97
2022-10-18T07:08:05.252Z,99546.50
2022-10-18T07:10:31.684Z,99549.34
2022-10-18T07:13:13.617Z,99551.50
2022-10-18T07:15:44.641Z,99554.34
2022-10-18T07:18:11.447Z,99554.19
2022-10-18T07:20:38.195Z,99554.78
2022-10-18T07:23:08.513Z,99562.25
2022-10-18T07:25:36.597Z,99563.59
2022-10-18T07:28:03.559Z,99570.56
2022-10-18T07:30:30.110Z,99575.72
2022-10-18T07:32:56.884Z,99568.16
2022-10-18T07:35:23.564Z,99573.16
2022-10-18T07:37:50.013Z,99570.19
2022-10-18T07:40:16.533Z,99574.78
2022-10-18T07:42:42.991Z,99562.97
2022-10-18T07:45:10.431Z,99568.97
2022-10-18T07:47:37.556Z,99565.38
2022-10-18T07:50:04.389Z,99568.63
2022-10-18T07:52:30.829Z,99564.06
2022-10-18T07:54:57.733Z,99563.25
2022-10-18T07:57:30.209Z,99555.78
2022-10-18T07:59:57.314Z,99558.88
2022-10-18T08:02:24.296Z,99563.72
2022-10-18T08:04:50.829Z,99555.75
2022-10-18T08:07:17.572Z,99550.84
2022-10-18T08:09:44.103Z,99550.56
2022-10-18T08:12:10.844Z,99544.56
2022-10-18T08:14:37.453Z,99546.16
2022-10-18T08:17:07.056Z,99563.94
2022-10-18T08:19:35.441Z,99562.63
2022-10-18T08:22:01.925Z,99565.72
2022-10-18T08:24:28.410Z,99572.66
2022-10-18T08:26:54.863Z,99565.66
2022-10-18T08:29:24.987Z,99567.53
2022-10-18T08:31:53.878Z,99571.03
2022-10-18T08:34:20.577Z,99564.63
2022-10-18T08:36:47.267Z,99559.03
2022-10-18T08:39:14.707Z,99566.63
2022-10-18T08:41:46.585Z,99558.88
2022-10-18T08:44:19.191Z,99565.31
2022-10-18T08:46:58.683Z,99558.84
2022-10-18T08:49:30.765Z,99557.75
2022-10-18T08:51:58.124Z,99561.28
2022-10-18T08:54:27.604Z,99557.47
2022-10-18T08:57:01.754Z,99554.91
2022-10-18T08:59:39.101Z,99544.97
2022-10-18T09:02:13.115Z,99552.41
2022-10-18T09:04:52.537Z,99548.03
2022-10-18T09:07:45.609Z,99543.25
2022-10-18T09:10:31.035Z,99544.72
2022-10-18T09:13:35.075Z,99544.53
2022-10-18T09:16:07.750Z,99546.97
2022-10-18T09:18:53.389Z,99553.50
2022-10-18T09:21:29.383Z,99546.50
2022-10-18T09:24:12.568Z,99546.47
2022-10-18T09:26:49.324Z,99547.78
2022-10-18T09:29:31.769Z,99554.91
2022-10-18T09:32:24.865Z,99558.34
2022-10-18T09:35:11.984Z,99563.00
2022-10-18T09:37:39.423Z,99564.50
2022-10-18T09:40:20.210Z,99568.38
2022-10-18T09:43:01.560Z,99563.34
2022-10-18T09:45:33.128Z,99565.44
2022-10-18T09:48:15.701Z,99564.00
2022-10-18T09:50:50.555Z,99567.34
2022-10-18T09:53:39.163Z,99562.47
2022-10-18T09:56:29.848Z,99567.47
2022-10-18T09:58:56.545Z,99566.63
2022-10-18T10:01:29.035Z,99576.22
2022-10-18T10:03:55.842Z,99576.91
2022-10-18T10:06:42.368Z,99573.19
2022-10-18T10:09:16.592Z,99577.47
2022-10-18T10:11:48.760Z,99573.50
2022-10-18T10:17:25.092Z,99571.34
2022-10-18T10:20:04.461Z,99572.97
2022-10-18T10:22:40.059Z,99566.63
2022-10-18T10:25:07.635Z,99562.88
2022-10-18T10:27:45.589Z,99573.75
2022-10-18T10:30:36.850Z,99562.91
2022-10-18T10:33:05.111Z,99566.59
2022-10-18T10:35:55.279Z,99563.94
2022-10-18T10:38:27.251Z,99564.25
2022-10-18T10:40:54.491Z,99560.78
2022-10-18T10:43:42.244Z,99566.59
2022-10-18T10:46:12.890Z,99560.19
2022-10-18T10:48:41.997Z,99560.16
2022-10-18T10:51:11.001Z,99563.84
2022-10-18T10:53:43.322Z,99548.78
2022-10-18T10:56:37.450Z,99558.13
2022-10-18T10:59:15.732Z,99557.09
2022-10-18T11:01:42.505Z,99567.19
2022-10-18T11:04:31.005Z,99567.69
2022-10-18T11:07:16.639Z,99563.19
2022-10-18T11:10:08.886Z,99566.06
2022-10-18T11:12:45.089Z,99573.97
2022-10-18T11:15:14.278Z,99585.78
2022-10-18T11:18:05.476Z,99586.81
2022-10-18T11:20:45.016Z,99589.59
2022-10-18T11:23:13.714Z,99586.84
2022-10-18T11:26:00.814Z,99587.31
2022-10-18T11:28:36.383Z,99576.69
2022-10-18T11:31:11.896Z,99576.97
2022-10-18T11:34:08.771Z,99574.63
2022-10-18T11:37:16.002Z,99580.59
2022-10-18T11:40:10.298Z,99574.97
2022-10-18T11:43:06.410Z,99568.97
2022-10-18T11:45:45.791Z,99562.16
2022-10-18T11:48:36.533Z,99566.13
2022-10-18T11:51:03.029Z,99560.22
2022-10-18T11:53:50.928Z,99561.72
2022-10-18T11:56:43.150Z,99559.91
2022-10-18T11:59:48.295Z,99555.34
2022-10-18T12:02:47.982Z,99562.25
2022-10-18T12:05:23.959Z,99557.22
2022-10-18T12:08:15.456Z,99551.13
2022-10-18T12:11:04.023Z,99551.16
2022-10-18T12:13:48.929Z,99549.28
2022-10-18T12:16:16.357Z,99552.75
2022-10-18T12:21:25.362Z,99552.00
2022-10-18T12:24:11.156Z,99548.03
2022-10-18T12:26:38.554Z,99558.38
2022-10-18T12:29:36.959Z,99551.75
2022-10-18T12:32:10.533Z,99557.38
2022-10-18T12:34:49.275Z,99554.69
2022-10-18T12:37:36.773Z,99552.53
2022-10-18T12:40:21.301Z,99554.94
2022-10-18T12:42:50.279Z,99557.34
2022-10-18T12:45:35.485Z,99551.22
2022-10-18T12:48:07.518Z,99548.03
2022-10-18T12:51:05.501Z,99548.28
2022-10-18T12:53:33.694Z,99545.56
2022-10-18T12:56:28.298Z,99554.28
2022-10-18T12:59:17.005Z,99553.50
2022-10-18T13:01:55.659Z,99555.59
2022-10-18T13:04:28.495Z,99553.50
2022-10-18T13:06:57.861Z,99552.97
2022-10-18T13:09:35.899Z,99554.53
2022-10-18T13:12:11.393Z,99559.28
2022-10-18T13:15:12.535Z,99559.78
2022-10-18T13:17:59.401Z,99551.31
2022-10-18T13:20:45.743Z,99555.28
2022-10-18T13:23:50.048Z,99557.47
2022-10-18T13:26:31.937Z,99558.47
2022-10-18T13:29:07.379Z,99560.38
2022-10-18T13:31:47.246Z,99561.13
2022-10-18T13:34:35.289Z,99559.59
2022-10-18T13:37:18.852Z,99561.47
2022-10-18T13:39:45.353Z,99561.47
2022-10-18T13:42:15.051Z,99566.25
2022-10-18T13:44:43.705Z,99562.81
2022-10-18T13:47:33.641Z,99569.41
2022-10-18T13:50:20.151Z,99574.19
2022-10-18T13:53:05.338Z,99580.28
2022-10-18T13:56:06.900Z,99579.19
2022-10-18T13:59:13.142Z,99588.75
2022-10-18T14:02:02.322Z,99594.34
2022-10-18T14:05:16.611Z,99590.94
2022-10-18T14:07:51.581Z,99581.13
2022-10-18T14:10:43.811Z,99590.41
2022-10-18T14:13:22.928Z,99590.41
2022-10-18T14:15:58.721Z,99580.06
2022-10-18T14:18:32.791Z,99587.47
2022-10-18T14:21:14.622Z,99585.38
2022-10-18T14:23:47.314Z,99583.78
2022-10-18T14:26:17.013Z,99586.97
2022-10-18T14:29:00.675Z,99588.81
2022-10-18T14:31:31.362Z,99589.84
2022-10-18T14:33:59.136Z,99587.47
2022-10-18T14:36:47.567Z,99587.72
2022-10-18T14:39:22.138Z,99588.50
2022-10-18T14:41:51.531Z,99582.66
2022-10-18T14:44:29.096Z,99583.97
2022-10-18T14:46:55.947Z,99570.44
2022-10-18T14:49:22.621Z,99571.97
2022-10-18T14:51:52.866Z,99570.09
2022-10-18T14:54:26.107Z,99566.13
2022-10-18T14:56:56.392Z,99560.34
2022-10-18T14:59:35.833Z,99563.50
2022-10-18T15:02:12.810Z,99556.53
2022-10-18T15:04:39.389Z,99568.41
2022-10-18T15:07:08.707Z,99568.16
2022-10-18T15:09:40.291Z,99569.72
2022-10-18T15:12:07.619Z,99567.34
2022-10-18T15:14:35.411Z,99584.03
2022-10-18T15:17:07.405Z,99570.47
2022-10-18T15:19:36.768Z,99570.97
2022-10-18T15:22:30.696Z,99577.31
2022-10-18T15:25:05.480Z,99579.47
2022-10-18T15:27:36.066Z,99572.78
2022-10-18T15:30:16.622Z,99583.94
2022-10-18T15:33:01.353Z,99586.00
2022-10-18T15:35:31.011Z,99589.38
2022-10-18T15:38:02.665Z,99590.69
2022-10-18T15:40:33.787Z,99589.91
2022-10-18T15:43:05.926Z,99597.56
2022-10-18T15:45:45.476Z,99598.28
2022-10-18T15:48:18.515Z,99597.25
2022-10-18T15:50:49.447Z,99588.25
2022-10-18T15:53:25.505Z,99589.97
2022-10-18T15:55:57.820Z,99590.44
2022-10-18T15:58:39.161Z,99588.59
2022-10-18T16:01:14.432Z,99588.59
2022-10-18T16:03:41.732Z,99589.13
2022-10-18T16:06:18.076Z,99597.00
2022-10-18T16:08:56.675Z,99584.63
2022-10-18T16:11:25.914Z,99598.09
2022-10-18T16:13:56.391Z,99588.91
2022-10-18T16:16:28.455Z,99598.66
2022-10-18T16:18:59.181Z,99597.53
2022-10-18T16:21:32.567Z,99599.38
2022-10-18T16:23:59.190Z,99602.34
2022-10-18T16:26:27.583Z,99610.47
2022-10-18T16:28:55.261Z,99610.00
2022-10-18T16:31:28.967Z,99605.97
2022-10-18T16:33:56.909Z,99607.78
2022-10-18T16:36:29.130Z,99615.66
2022-10-18T16:38:57.615Z,99622.78
2022-10-18T16:41:24.945Z,99631.53
2022-10-18T16:43:54.832Z,99633.66
2022-10-18T16:46:24.244Z,99628.94
2022-10-18T16:48:51.815Z,99641.09
2022-10-18T16:51:18.757Z,99644.78
2022-10-18T16:53:46.580Z,99643.06
2022-10-18T16:56:22.130Z,99643.34
2022-10-18T16:58:48.929Z,99645.16
2022-10-18T17:01:17.691Z,99654.81
2022-10-18T17:03:45.041Z,99661.81
2022-10-18T17:06:18.297Z,99671.00
2022-10-18T17:08:45.599Z,99679.69
2022-10-18T17:11:14.008Z,99686.22
2022-10-18T17:13:41.149Z,99679.81
2022-10-18T17:16:13.727Z,99690.94
2022-10-18T17:18:40.241Z,99687.97
2022-10-18T17:21:06.894Z,99686.38
2022-10-18T17:23:34.153Z,99689.81
2022-10-18T17:26:06.908Z,99685.63
2022-10-18T17:28:36.402Z,99700.81
2022-10-18T17:31:07.166Z,99698.84
2022-10-18T17:33:34.019Z,99703.09
2022-10-18T17:36:00.554Z,99702.22
2022-10-18T17:38:28.071Z,99702.28
2022-10-18T17:40:54.621Z,99707.03
2022-10-18T17:43:21.310Z,99704.41
2022-10-18T17:45:49.011Z,99708.25
2022-10-18T17:48:15.572Z,99717.41
2022-10-18T17:50:42.266Z,99718.69
2022-10-18T17:53:10.689Z,99713.94
2022-10-18T17:55:37.537Z,99715.25
2022-10-18T17:58:04.036Z,99711.72
2022-10-18T18:00:30.586Z,99708.53
2022-10-18T18:02:58.638Z,99699.03
2022-10-18T18:05:25.536Z,99709.28
2022-10-18T18:07:52.214Z,99709.50
2022-10-18T18:10:22.053Z,99715.03
2022-10-18T18:12:48.727Z,99704.94
2022-10-18T18:15:15.715Z,99707.03
2022-10-18T18:17:58.214Z,99711.88
2022-10-18T18:20:25.898Z,99716.63
2022-10-18T18:22:52.501Z,99713.41
2022-10-18T18:25:19.243Z,99707.59
2022-10-18T18:27:45.992Z,99713.50
2022-10-18T18:30:12.654Z,99713.97
2022-10-18T18:32:39.163Z,99714.94
2022-10-18T18:35:06.093Z,99716.94
2022-10-18T18:37:35.796Z,99723.97
2022-10-18T18:40:02.454Z,99727.50
2022-10-18T18:42:28.957Z,99718.69
2022-10-18T18:44:55.632Z,99722.06
2022-10-18T18:47:23.532Z,99717.72
2022-10-18T18:49:51.664Z,99717.09
2022-10-18T18:52:18.484Z,99718.91
2022-10-18T18:54:45.131Z,99715.78
2022-10-18T18:57:11.722Z,99721.47
2022-10-18T18:59:38.242Z,99714.25
2022-10-18T19:02:04.703Z,99723.91
2022-10-18T19:04:31.389Z,99717.78
2022-10-18T19:06:57.924Z,99719.59
2022-10-18T19:09:26.504Z,99713.75
2022-10-18T19:11:55.509Z,99722.25
2022-10-18T19:14:24.688Z,99719.28
2022-10-18T19:16:54.642Z,99717.09
2022-10-18T19:19:23.467Z,99719.56
2022-10-18T19:21:59.364Z,99714.50
2022-10-18T19:24:28.287Z,99721.72
2022-10-18T19:26:57.609Z,99719.66
2022-10-18T19:29:29.181Z,99717.81
2022-10-18T19:31:58.074Z,99713.50
2022-10-18T19:34:27.233Z,99720.38
2022-10-18T19:36:54.328Z,99722.78
2022-10-18T19:39:26.330Z,99725.56
2022-10-18T19:41:56.722Z,99721.91
2022-10-18T19:44:25.105Z,99721.91
2022-10-18T19:46:51.990Z,99726.84
2022-10-18T19:49:18.476Z,99731.88
2022-10-18T19:51:45.623Z,99733.81
2022-10-18T19:54:13.902Z,99727.72
2022-10-18T19:56:44.122Z,99728.97
2022-10-18T19:59:12.255Z,99731.16
2022-10-18T20:01:38.779Z,99736.53
2022-10-18T20:04:07.241Z,99738.53
2022-10-18T20:06:34.718Z,99733.94
2022-10-18T20:09:01.976Z,99731.22
2022-10-18T20:11:29.708Z,99732.00
2022-10-18T20:13:56.669Z,99732.22
2022-10-18T20:16:28.460Z,99734.53
2022-10-18T20:19:00.006Z,99740.84
2022-10-18T20:21:28.419Z,99732.72
2022-10-18T20:23:55.664Z,99737.97
2022-10-18T20:26:22.722Z,99742.78
2022-10-18T20:28:57.379Z,99740.34
2022-10-18T20:31:26.900Z,99744.38
2022-10-18T20:33:56.120Z,99738.53
2022-10-18T20:36:22.594Z,99738.19
2022-10-18T20:38:49.591Z,99743.47
2022-10-18T20:41:19.039Z,99740.84
2022-10-18T20:43:50.613Z,99742.09
2022-10-18T20:46:17.019Z,99741.97
2022-10-18T20:48:43.503Z,99744.38
2022-10-18T20:51:12.759Z,99746.00
2022-10-18T20:53:40.216Z,99750.69
2022-10-18T20:56:12.153Z,99744.84
2022-10-18T20:58:40.570Z,99739.13
2022-10-18T21:01:21.926Z,99742.28
2022-10-18T21:07:30.982Z,99744.72
2022-10-18T21:09:57.768Z,99741.84
2022-10-18T21:12:25.533Z,99737.50
2022-10-18T21:15:20.267Z,99749.78
2022-10-18T21:17:51.213Z,99742.34
2022-10-18T21:20:18.124Z,99746.13
2022-10-18T21:22:44.719Z,99741.09
2022-10-18T21:25:11.277Z,99743.16
2022-10-18T21:27:37.787Z,99742.16
2022-10-18T21:30:04.767Z,99741.00
2022-10-18T21:32:31.598Z,99744.22
2022-10-18T21:34:58.171Z,99746.72
2022-10-18T21:37:24.652Z,99739.84
2022-10-18T21:39:51.271Z,99733.66
2022-10-18T21:42:26.987Z,99736.28
2022-10-18T21:44:53.348Z,99740.13
2022-10-18T21:47:19.714Z,99739.44
2022-10-18T21:49:46.256Z,99733.03
2022-10-18T21:52:12.655Z,99737.00
2022-10-18T21:54:39.137Z,99735.31
2022-10-18T21:57:05.577Z,99735.19
2022-10-18T21:59:32.367Z,99737.06
2022-10-18T22:02:01.201Z,99727.25
2022-10-18T22:04:27.799Z,99723.25
2022-10-18T22:06:54.416Z,99728.84
2022-10-18T22:09:39.409Z,99731.41
2022-10-18T22:12:06.248Z,99732.63
2022-10-18T22:14:34.588Z,99725.09
2022-10-18T22:17:01.340Z,99730.81
2022-10-18T22:19:27.935Z,99728.72
2022-10-18T22:21:54.338Z,99724.63
2022-10-18T22:24:20.883Z,99717.41
2022-10-18T22:26:47.488Z,99727.72
2022-10-18T22:29:19.663Z,99720.41
2022-10-18T22:31:52.159Z,99725.53
2022-10-18T22:34:24.407Z,99722.13
2022-10-18T22:36:50.823Z,99725.97
2022-10-18T22:39:17.654Z,99723.00
2022-10-18T22:41:44.211Z,99725.28
2022-10-18T22:44:12.950Z,99729.59
2022-10-18T22:46:40.243Z,99724.22
2022-10-18T22:49:07.532Z,99727.09
2022-10-18T22:54:02.003Z,99721.47
2022-10-18T22:56:28.479Z,99720.22
2022-10-18T22:58:55.387Z,99716.41
2022-10-18T23:01:23.829Z,99720.06
2022-10-18T23:04:00.969Z,99723.50
2022-10-18T23:06:30.758Z,99715.63
2022-10-18T23:08:59.134Z,99715.25
2022-10-18T23:11:27.488Z,99713.06
2022-10-18T23:13:54.347Z,99716.03
2022-10-18T23:16:21.007Z,99711.38
2022-10-18T23:18:55.236Z,99721.97
2022-10-18T23:21:24.124Z,99709.41
2022-10-18T23:23:51.449Z,99711.41
2022-10-18T23:26:20.745Z,99717.34
2022-10-18T23:28:48.895Z,99717.88
2022-10-18T23:35:21.687Z,99713.19
2022-10-18T23:37:48.132Z,99715.75
2022-10-18T23:40:14.596Z,99715.31
2022-10-18T23:42:40.972Z,99722.63
2022-10-18T23:45:08.010Z,99716.53
2022-10-18T23:47:34.716Z,99732.59
2022-10-18T23:50:01.512Z,99729.00
2022-10-18T23:52:27.911Z,99731.53
2022-10-18T23:54:54.305Z,99732.78
2022-10-18T23:57:20.772Z,99725.47
2022-10-18T23:59:47.151Z,99730.97
